Time;durP1;ratioP1;P1;durP2;ratioP2;P2;SDS_P1;SDS_P2;PMS_P1;PMS_P2;Temp;Humidity;BMP_temperature;BMP_pressure;BME280_temperature;BME280_humidity;BME280_pressure;Samples;Min_cycle;Max_cycle;Signal;HPM_P1;HPM_P2
2022/01/08 00:01:30;;;;;;;1.93;0.97;;;4.70;99.90;;;;;;5033657;28;20025;-66
2022/01/08 00:03:55;;;;;;;5.27;1.27;;;4.80;99.90;;;;;;5033374;28;20018;-66
2022/01/08 00:06:21;;;;;;;4.90;1.10;;;4.80;99.90;;;;;;5032119;28;20021;-66
2022/01/08 00:08:48;;;;;;;7.13;1.17;;;4.80;99.90;;;;;;5033476;28;20176;-66
2022/01/08 00:11:18;;;;;;;3.05;1.45;;;4.80;99.90;;;;;;5033922;28;20021;-66
2022/01/08 00:13:45;;;;;;;3.65;1.27;;;4.80;99.90;;;;;;5034479;28;20049;-66
2022/01/08 00:16:11;;;;;;;5.63;1.50;;;4.90;99.90;;;;;;5033683;28;20559;-66
2022/01/08 00:18:37;;;;;;;4.37;1.70;;;4.90;99.90;;;;;;5032554;28;20079;-66
2022/01/08 00:21:02;;;;;;;3.20;1.10;;;4.90;99.90;;;;;;5033797;28;20038;-65
2022/01/08 00:23:29;;;;;;;3.50;1.20;;;4.90;99.90;;;;;;5033695;28;20037;-66
2022/01/08 00:25:55;;;;;;;2.38;0.88;;;4.90;99.90;;;;;;5033073;28;20037;-65
2022/01/08 00:28:21;;;;;;;5.37;1.43;;;5.00;99.90;;;;;;5032713;28;20033;-66
2022/01/08 00:30:48;;;;;;;3.43;1.17;;;5.00;99.90;;;;;;5031786;28;20037;-66
2022/01/08 00:33:13;;;;;;;4.85;1.50;;;5.00;99.90;;;;;;5033496;28;20043;-65
2022/01/08 00:35:39;;;;;;;4.10;2.00;;;5.00;99.90;;;;;;5033156;28;20469;-66
2022/01/08 00:38:05;;;;;;;2.90;1.30;;;5.00;99.90;;;;;;5031902;28;20026;-65
2022/01/08 00:40:31;;;;;;;3.00;1.03;;;5.00;99.90;;;;;;5031919;28;20063;-67
2022/01/08 00:42:56;;;;;;;3.15;1.10;;;5.10;99.90;;;;;;5033259;28;20100;-66
2022/01/08 00:45:22;;;;;;;2.27;0.93;;;5.10;99.90;;;;;;5032858;28;20045;-65
2022/01/08 00:47:48;;;;;;;3.20;1.17;;;5.10;99.90;;;;;;5032116;28;20450;-66
2022/01/08 00:50:14;;;;;;;3.93;1.23;;;5.20;99.90;;;;;;5036886;28;20109;-66
2022/01/08 00:52:41;;;;;;;2.95;1.15;;;5.10;99.90;;;;;;5036861;28;20030;-64
2022/01/08 00:55:08;;;;;;;4.75;1.20;;;5.10;99.90;;;;;;5036694;28;20044;-65
2022/01/08 00:57:34;;;;;;;4.85;1.90;;;5.20;99.90;;;;;;5035423;28;20030;-67
2022/01/08 01:00:00;;;;;;;4.40;1.07;;;5.20;99.90;;;;;;5036887;28;20424;-66
2022/01/08 01:02:25;;;;;;;5.50;1.08;;;5.30;99.90;;;;;;5036722;28;20021;-65
2022/01/08 01:04:51;;;;;;;2.00;1.00;;;5.40;99.90;;;;;;5037067;28;20029;-65
2022/01/08 01:07:17;;;;;;;4.23;1.00;;;5.40;99.90;;;;;;5036754;28;20390;-66
2022/01/08 01:09:43;;;;;;;4.57;1.63;;;5.30;99.90;;;;;;5037027;28;20026;-65
2022/01/08 01:12:09;;;;;;;3.78;0.90;;;5.40;99.90;;;;;;5036570;28;20029;-66
2022/01/08 01:14:34;;;;;;;1.63;0.80;;;5.40;99.90;;;;;;5037941;28;20030;-67
2022/01/08 01:17:00;;;;;;;2.00;0.90;;;5.40;99.90;;;;;;5038238;28;20268;-67
2022/01/08 01:19:26;;;;;;;3.10;1.25;;;5.30;99.90;;;;;;5035201;28;20030;-66
2022/01/08 01:21:54;;;;;;;4.50;0.90;;;5.30;99.90;;;;;;5036304;28;20553;-67
2022/01/08 01:24:23;;;;;;;7.18;1.45;;;5.30;99.90;;;;;;5036561;28;20342;-66
2022/01/08 01:30:05;;;;;;;3.42;1.02;;;5.30;99.90;;;;;;5014983;28;20057;-66
2022/01/08 01:48:27;;;;;;;3.83;1.30;;;5.30;99.90;;;;;;5036975;28;20429;-67
2022/01/08 01:50:53;;;;;;;3.30;0.93;;;5.20;99.90;;;;;;5035244;28;20021;-66
2022/01/08 01:53:19;;;;;;;3.70;1.00;;;5.20;99.90;;;;;;5036639;28;20033;-67
2022/01/08 01:55:48;;;;;;;4.07;0.97;;;5.20;99.90;;;;;;5035471;28;20036;-67
2022/01/08 01:58:15;;;;;;;3.53;1.23;;;5.10;99.90;;;;;;5036622;28;20040;-67
2022/01/08 02:00:42;;;;;;;;;;;5.10;99.90;;;;;;5035074;28;20030;-66
2022/01/08 02:03:07;;;;;;;3.95;0.73;;;5.00;99.90;;;;;;5035790;28;19905;-68
2022/01/08 02:05:33;;;;;;;1.97;0.80;;;5.00;99.90;;;;;;5036063;28;20029;-67
2022/01/08 02:07:59;;;;;;;2.93;1.00;;;5.00;99.90;;;;;;5036404;28;20401;-66
2022/01/08 02:10:25;;;;;;;7.68;1.75;;;4.90;99.90;;;;;;5035879;28;20478;-67
2022/01/08 02:12:50;;;;;;;5.22;1.25;;;4.90;99.90;;;;;;5036279;28;20132;-66
2022/01/08 02:15:17;;;;;;;4.20;1.03;;;4.90;99.90;;;;;;5037034;28;20025;-67
2022/01/08 02:17:43;;;;;;;3.33;0.93;;;4.90;99.90;;;;;;5036577;28;20025;-66
2022/01/08 02:20:10;;;;;;;5.93;1.85;;;4.90;99.90;;;;;;5037223;28;20032;-67
2022/01/08 02:22:35;;;;;;;3.55;1.10;;;4.90;99.90;;;;;;5036052;28;20021;-66
2022/01/08 02:25:02;;;;;;;3.80;1.42;;;4.90;99.90;;;;;;5035457;28;20036;-66
2022/01/08 02:27:28;;;;;;;2.63;0.95;;;4.80;99.90;;;;;;5035400;28;20033;-66
2022/01/08 02:29:53;;;;;;;2.10;0.73;;;4.80;99.90;;;;;;5034129;28;20025;-66
2022/01/08 02:32:25;;;;;;;6.77;1.57;;;4.70;99.90;;;;;;5034245;28;20041;-66
2022/01/08 02:34:51;;;;;;;1.20;0.60;;;4.70;99.90;;;;;;5035966;28;20334;-66
2022/01/08 02:37:18;;;;;;;1.87;0.83;;;4.70;99.90;;;;;;5035925;28;20029;-66
2022/01/08 02:39:48;;;;;;;5.18;1.17;;;4.70;99.90;;;;;;5034578;28;20528;-66
2022/01/08 02:42:18;;;;;;;3.38;0.90;;;4.60;99.90;;;;;;5037077;28;20032;-66
2022/01/08 02:44:45;;;;;;;3.35;1.00;;;4.50;99.90;;;;;;5037046;28;20081;-65
2022/01/08 02:47:15;;;;;;;2.20;0.80;;;4.40;99.90;;;;;;5034808;28;20075;-66
2022/01/08 02:49:41;;;;;;;1.80;0.65;;;4.30;99.90;;;;;;5035311;28;20029;-66
2022/01/08 02:52:07;;;;;;;4.93;0.77;;;4.30;99.90;;;;;;5034083;28;20128;-65
2022/01/08 02:54:33;;;;;;;1.88;0.60;;;4.20;99.90;;;;;;5034820;28;20025;-66
2022/01/08 02:56:59;;;;;;;3.00;0.63;;;4.20;99.90;;;;;;5034751;28;20086;-66
2022/01/08 02:59:24;;;;;;;1.80;0.50;;;4.10;99.90;;;;;;5033218;28;20021;-66
2022/01/08 03:01:52;;;;;;;0.63;0.50;;;4.10;99.90;;;;;;5034945;28;20260;-66
2022/01/08 03:04:19;;;;;;;1.75;0.95;;;4.10;99.90;;;;;;5034897;28;20270;-66
2022/01/08 03:06:44;;;;;;;1.50;0.63;;;4.10;99.90;;;;;;5034600;28;20033;-66
2022/01/08 03:09:10;;;;;;;1.20;0.60;;;4.10;99.90;;;;;;5034615;28;20044;-65
2022/01/08 03:11:38;;;;;;;0.53;0.40;;;4.10;99.90;;;;;;5032310;28;20417;-66
2022/01/08 03:14:04;;;;;;;1.58;0.50;;;4.10;99.90;;;;;;5034335;28;20442;-66
2022/01/08 03:16:29;;;;;;;1.45;0.50;;;4.10;99.90;;;;;;5034336;28;20166;-66
2022/01/08 03:18:55;;;;;;;2.27;0.67;;;4.10;99.90;;;;;;5034395;28;20029;-65
2022/01/08 03:21:22;;;;;;;1.53;0.70;;;4.20;99.90;;;;;;5034650;28;20083;-66
2022/01/08 03:23:57;;;;;;;3.13;0.70;;;4.10;99.90;;;;;;5033739;28;20104;-65
2022/01/08 03:26:25;;;;;;;3.22;1.15;;;4.10;99.90;;;;;;5033936;28;20031;-67
2022/01/08 03:28:51;;;;;;;2.28;0.60;;;4.10;99.90;;;;;;5032866;28;20078;-65
2022/01/08 03:31:17;;;;;;;0.95;0.70;;;4.10;99.90;;;;;;5032482;28;20041;-65
2022/01/08 03:33:44;;;;;;;2.97;0.95;;;4.10;99.90;;;;;;5033513;28;20029;-66
2022/01/08 03:36:10;;;;;;;1.58;1.00;;;4.10;99.90;;;;;;5033395;28;20076;-66
2022/01/08 03:38:36;;;;;;;;;;;4.10;99.90;;;;;;5034054;28;20521;-67
2022/01/08 03:41:02;;;;;;;2.17;0.77;;;4.10;99.90;;;;;;5032228;28;19952;-67
2022/01/08 03:43:28;;;;;;;4.68;0.98;;;4.10;99.90;;;;;;5034016;28;20471;-66
2022/01/08 03:45:53;;;;;;;2.25;0.80;;;4.10;99.90;;;;;;5034263;28;20091;-66
2022/01/08 03:50:57;;;;;;;4.93;1.13;;;4.10;99.90;;;;;;5035056;28;20099;-67
2022/01/08 03:53:25;;;;;;;1.83;1.00;;;4.10;99.90;;;;;;5035373;28;20052;-66
2022/01/08 03:55:51;;;;;;;1.42;0.90;;;4.10;99.90;;;;;;5036242;28;20044;-67
2022/01/08 03:58:18;;;;;;;1.80;1.50;;;4.00;99.90;;;;;;5036421;28;20076;-66
2022/01/08 04:00:44;;;;;;;3.00;0.90;;;4.00;99.90;;;;;;5033870;28;20022;-66
2022/01/08 04:03:10;;;;;;;2.42;0.93;;;3.90;99.90;;;;;;5033849;28;20510;-66
2022/01/08 04:05:35;;;;;;;1.73;0.90;;;3.80;99.90;;;;;;5033809;28;20064;-66
2022/01/08 04:08:01;;;;;;;3.63;0.90;;;3.70;99.90;;;;;;5035161;28;20444;-66
2022/01/08 04:10:27;;;;;;;1.27;0.80;;;3.60;99.90;;;;;;5035234;28;20416;-66
2022/01/08 04:12:56;;;;;;;1.33;0.80;;;3.60;99.90;;;;;;5033310;28;20422;-66
2022/01/08 04:17:49;;;;;;;;;;;3.50;99.90;;;;;;5034303;28;20029;-67
2022/01/08 04:20:16;;;;;;;1.10;0.80;;;3.50;99.90;;;;;;5034835;28;19955;-66
2022/01/08 04:22:44;;;;;;;2.15;0.90;;;3.50;99.90;;;;;;5035600;28;20064;-66
2022/01/08 04:25:10;;;;;;;4.38;0.93;;;3.60;99.90;;;;;;5037718;28;20037;-67
2022/01/08 04:27:36;;;;;;;3.88;0.88;;;3.50;99.90;;;;;;5038462;28;20026;-66
2022/01/08 04:30:03;;;;;;;3.28;1.60;;;3.60;99.90;;;;;;5037958;28;20113;-67
2022/01/08 04:32:28;;;;;;;1.67;1.10;;;3.50;99.90;;;;;;5059569;22;20052;-66
2022/01/08 04:34:54;;;;;;;2.87;1.10;;;3.60;99.90;;;;;;5035997;28;20026;-65
2022/01/08 04:37:20;;;;;;;2.83;1.37;;;3.60;99.90;;;;;;5036052;28;20096;-65
2022/01/08 04:39:45;;;;;;;2.88;1.10;;;3.60;99.90;;;;;;5051412;28;20063;-65
2022/01/08 04:42:11;;;;;;;3.13;1.30;;;3.60;99.90;;;;;;5036266;28;20037;-65
2022/01/08 04:44:37;;;;;;;4.80;2.33;;;3.70;99.90;;;;;;5036008;28;20021;-65
2022/01/08 04:47:03;;;;;;;8.17;1.37;;;3.70;99.90;;;;;;5036427;28;20025;-65
2022/01/08 04:49:28;;;;;;;2.70;1.30;;;3.70;99.90;;;;;;5036300;28;20183;-65
2022/01/08 04:51:54;;;;;;;2.70;1.17;;;3.70;99.90;;;;;;5036510;28;20148;-65
2022/01/08 04:54:20;;;;;;;5.50;1.50;;;3.80;99.90;;;;;;5036344;28;20017;-66
2022/01/08 04:56:46;;;;;;;1.10;1.00;;;3.80;99.90;;;;;;5036357;28;20040;-65
2022/01/08 04:59:12;;;;;;;2.93;1.10;;;3.80;99.90;;;;;;5035665;28;20025;-66
2022/01/08 05:01:38;;;;;;;3.88;1.55;;;3.80;99.90;;;;;;5035615;28;20482;-65
2022/01/08 05:04:03;;;;;;;1.67;0.80;;;3.90;99.90;;;;;;5035560;28;20386;-66
2022/01/08 05:06:31;;;;;;;2.87;0.73;;;3.90;99.90;;;;;;5035734;28;20104;-65
2022/01/08 05:08:56;;;;;;;1.73;0.80;;;3.90;99.90;;;;;;5036602;28;20264;-66
2022/01/08 05:11:22;;;;;;;1.27;0.60;;;4.00;99.90;;;;;;5038276;28;20052;-66
2022/01/08 05:13:50;;;;;;;2.03;0.70;;;4.00;99.90;;;;;;5036262;28;20359;-64
2022/01/08 05:16:15;;;;;;;0.93;0.52;;;3.90;99.90;;;;;;5035667;28;20284;-65
2022/01/08 05:18:41;;;;;;;0.90;0.60;;;3.90;99.90;;;;;;5035643;28;20083;-65
2022/01/08 05:21:21;;;;;;;0.40;0.35;;;3.90;99.90;;;;;;5035651;28;20103;-64
2022/01/08 05:23:47;;;;;;;0.20;0.20;;;3.80;99.90;;;;;;5036315;28;20044;-65
2022/01/08 05:26:13;;;;;;;0.60;0.40;;;3.80;99.90;;;;;;5035572;28;20421;-65
2022/01/08 05:28:38;;;;;;;0.30;0.30;;;3.80;99.90;;;;;;5037349;28;20026;-66
2022/01/08 05:31:04;;;;;;;1.30;0.30;;;3.80;99.90;;;;;;5035041;28;20049;-65
2022/01/08 05:33:30;;;;;;;0.47;0.40;;;3.80;99.90;;;;;;5035228;28;20034;-65
2022/01/08 05:35:55;;;;;;;0.40;0.33;;;3.80;99.90;;;;;;5032809;28;20033;-65
2022/01/08 05:38:21;;;;;;;0.87;0.70;;;3.70;99.90;;;;;;5033970;28;20022;-67
2022/01/08 05:40:47;;;;;;;0.30;0.20;;;3.70;99.90;;;;;;5034225;28;20112;-66
2022/01/08 05:43:13;;;;;;;0.88;0.40;;;3.60;99.90;;;;;;5034857;28;20083;-65
2022/01/08 05:45:39;;;;;;;0.95;0.40;;;3.60;99.90;;;;;;5033610;28;20041;-65
2022/01/08 05:48:05;;;;;;;2.40;0.50;;;3.60;99.90;;;;;;5034805;28;20021;-65
2022/01/08 05:50:31;;;;;;;1.05;0.57;;;3.60;99.90;;;;;;5034944;28;20048;-67
2022/01/08 05:52:56;;;;;;;1.00;0.60;;;3.50;99.90;;;;;;5035236;28;20526;-63
2022/01/08 05:55:22;;;;;;;1.97;0.50;;;3.50;99.90;;;;;;5034822;28;20033;-65
2022/01/08 05:57:48;;;;;;;2.03;0.60;;;3.50;99.90;;;;;;5035088;28;20025;-65
2022/01/08 06:00:14;;;;;;;0.80;0.40;;;3.50;99.90;;;;;;5034783;28;20025;-64
2022/01/08 06:02:39;;;;;;;1.23;0.50;;;3.40;99.90;;;;;;5035308;28;20014;-65
2022/01/08 06:05:06;;;;;;;1.27;0.60;;;3.50;99.90;;;;;;5034666;28;20111;-65
2022/01/08 06:07:32;;;;;;;0.80;0.52;;;3.50;99.90;;;;;;5034485;28;20394;-65
2022/01/08 06:09:57;;;;;;;2.35;0.70;;;3.50;99.90;;;;;;5033341;28;20036;-65
2022/01/08 06:12:23;;;;;;;1.17;0.50;;;3.50;99.90;;;;;;5034356;28;20025;-65
2022/01/08 06:14:48;;;;;;;3.30;0.60;;;3.50;99.90;;;;;;5034253;28;20107;-65
2022/01/08 06:17:14;;;;;;;1.93;0.70;;;3.50;99.90;;;;;;5034211;28;20093;-65
2022/01/08 06:19:40;;;;;;;1.52;0.70;;;3.50;99.90;;;;;;5034145;28;20568;-65
2022/01/08 06:22:06;;;;;;;2.13;0.70;;;3.50;99.90;;;;;;5034311;28;20025;-65
2022/01/08 06:24:32;;;;;;;2.45;0.90;;;3.50;99.90;;;;;;5034030;28;20206;-65
2022/01/08 06:26:57;;;;;;;2.13;0.67;;;3.50;99.90;;;;;;5034072;28;20116;-65
2022/01/08 06:29:23;;;;;;;2.27;1.20;;;3.50;99.90;;;;;;5033884;28;20029;-65
2022/01/08 06:31:49;;;;;;;3.37;1.30;;;3.50;99.90;;;;;;5034197;28;20118;-65
2022/01/08 06:34:14;;;;;;;1.67;0.57;;;3.50;99.90;;;;;;5033984;28;20260;-65
2022/01/08 06:36:40;;;;;;;1.90;0.80;;;3.50;99.90;;;;;;5033587;28;20559;-65
2022/01/08 06:39:06;;;;;;;1.13;0.70;;;3.50;99.90;;;;;;5033747;28;20351;-64
2022/01/08 06:41:32;;;;;;;2.65;0.70;;;3.50;99.90;;;;;;5032587;28;20028;-65
2022/01/08 06:43:58;;;;;;;2.20;0.70;;;3.60;99.90;;;;;;5033765;28;20083;-65
2022/01/08 06:46:24;;;;;;;1.55;0.50;;;3.60;99.90;;;;;;5033939;28;20482;-65
2022/01/08 06:48:50;;;;;;;2.83;1.00;;;3.60;99.90;;;;;;5033739;28;20084;-65
2022/01/08 06:51:15;;;;;;;1.83;0.60;;;3.60;99.90;;;;;;5033697;28;20026;-65
2022/01/08 06:53:41;;;;;;;1.07;0.50;;;3.60;99.90;;;;;;5033830;28;20136;-65
2022/01/08 06:56:07;;;;;;;1.47;0.50;;;3.60;99.90;;;;;;5033541;28;20029;-64
2022/01/08 06:58:33;;;;;;;1.00;0.63;;;3.60;99.90;;;;;;5032234;28;20279;-65
2022/01/08 07:00:59;;;;;;;;;;;3.60;99.90;;;;;;5033975;28;20044;-65
2022/01/08 07:03:25;;;;;;;1.45;0.80;;;3.50;99.90;;;;;;5033753;28;19905;-66
2022/01/08 07:05:50;;;;;;;2.57;0.97;;;3.50;99.90;;;;;;5032124;28;20108;-65
2022/01/08 07:08:16;;;;;;;1.20;0.60;;;3.50;99.90;;;;;;5033619;28;20025;-65
2022/01/08 07:10:42;;;;;;;2.23;0.93;;;3.40;99.90;;;;;;5034331;28;20029;-66
2022/01/08 07:13:08;;;;;;;2.05;0.70;;;3.40;99.90;;;;;;5032284;28;20021;-68
2022/01/08 07:15:33;;;;;;;0.87;0.60;;;3.40;99.90;;;;;;5032614;28;20032;-68
2022/01/08 07:18:00;;;;;;;1.60;0.87;;;3.40;99.90;;;;;;5032453;28;20271;-68
2022/01/08 07:20:26;;;;;;;2.65;0.80;;;3.40;99.90;;;;;;5033163;28;20108;-68
2022/01/08 07:22:52;;;;;;;1.67;0.77;;;3.40;99.90;;;;;;5033448;28;20264;-68
2022/01/08 07:25:17;;;;;;;1.88;0.90;;;3.40;99.90;;;;;;5032078;28;20561;-67
2022/01/08 07:27:43;;;;;;;1.93;0.73;;;3.40;99.90;;;;;;5033072;28;20037;-67
2022/01/08 07:30:10;;;;;;;0.93;0.80;;;3.50;99.90;;;;;;5033032;28;20025;-67
2022/01/08 07:32:39;;;;;;;;;;;3.50;99.90;;;;;;5031841;28;20053;-66
2022/01/08 07:35:05;;;;;;;1.42;1.02;;;3.50;99.90;;;;;;5033770;28;19909;-67
2022/01/08 07:37:31;;;;;;;1.65;0.88;;;3.50;99.90;;;;;;5032164;28;20021;-67
2022/01/08 07:39:56;;;;;;;1.33;0.90;;;3.50;99.90;;;;;;5031977;28;20105;-67
2022/01/08 07:42:22;;;;;;;3.07;0.90;;;3.60;99.90;;;;;;5033719;28;20025;-67
2022/01/08 07:44:48;;;;;;;3.23;1.10;;;3.60;99.90;;;;;;5033339;28;20028;-68
2022/01/08 07:47:13;;;;;;;2.50;1.17;;;3.60;99.90;;;;;;5033736;28;20482;-67
2022/01/08 07:49:39;;;;;;;4.60;1.17;;;3.60;99.90;;;;;;5032183;28;20485;-67
2022/01/08 07:52:05;;;;;;;4.57;1.13;;;3.60;99.90;;;;;;5034359;28;20041;-67
2022/01/08 07:54:31;;;;;;;3.53;1.02;;;3.70;99.90;;;;;;5035449;28;20036;-67
2022/01/08 07:56:57;;;;;;;1.93;0.80;;;3.70;99.90;;;;;;5033482;28;20471;-67
2022/01/08 07:59:22;;;;;;;2.50;1.90;;;3.70;99.90;;;;;;5036202;28;20076;-67
2022/01/08 08:01:49;;;;;;;1.43;1.10;;;3.70;99.90;;;;;;5038838;28;20024;-67
2022/01/08 08:04:14;;;;;;;;;;;3.80;99.90;;;;;;5039876;28;20017;-67
2022/01/08 08:06:44;;;;;;;2.67;1.15;;;3.80;99.90;;;;;;5037242;28;20235;-67
2022/01/08 08:09:10;;;;;;;2.17;1.15;;;3.70;99.90;;;;;;5036788;28;20544;-67
2022/01/08 08:11:36;;;;;;;4.65;1.40;;;3.70;99.90;;;;;;5037065;28;20037;-66
2022/01/08 08:14:02;;;;;;;8.00;1.57;;;3.70;99.90;;;;;;5036645;28;20115;-66
2022/01/08 08:16:27;;;;;;;2.27;1.20;;;3.70;99.90;;;;;;5036863;28;20035;-69
2022/01/08 08:18:53;;;;;;;3.67;1.60;;;3.70;99.90;;;;;;5037252;28;20018;-68
2022/01/08 08:21:21;;;;;;;4.77;1.93;;;3.70;99.90;;;;;;5035807;28;20095;-69
2022/01/08 08:23:46;;;;;;;4.90;2.13;;;3.70;99.90;;;;;;5038851;28;20032;-69
2022/01/08 08:26:12;;;;;;;7.07;2.17;;;3.70;99.90;;;;;;5036396;28;20030;-67
2022/01/08 08:28:42;;;;;;;5.13;2.33;;;3.70;99.90;;;;;;5036959;28;20032;-67
2022/01/08 08:31:10;;;;;;;3.92;2.13;;;3.80;99.90;;;;;;5034799;28;20466;-66
2022/01/08 08:33:35;;;;;;;6.15;2.25;;;3.70;99.90;;;;;;5036642;28;20022;-65
2022/01/08 08:36:01;;;;;;;6.10;2.10;;;3.70;99.90;;;;;;5036112;28;20115;-65
2022/01/08 08:38:27;;;;;;;4.00;2.37;;;3.80;99.90;;;;;;5036159;28;20022;-68
2022/01/08 08:40:53;;;;;;;3.53;2.47;;;3.70;99.90;;;;;;5036057;28;20030;-70
2022/01/08 08:43:22;;;;;;;5.25;2.38;;;3.80;99.90;;;;;;5034779;28;20021;-69
2022/01/08 08:45:47;;;;;;;4.45;2.20;;;3.70;99.90;;;;;;5036746;28;20053;-69
2022/01/08 08:48:13;;;;;;;6.17;1.90;;;3.70;99.90;;;;;;5036418;28;20079;-70
2022/01/08 08:50:39;;;;;;;6.33;3.27;;;3.80;99.90;;;;;;5036668;28;20419;-70
2022/01/08 08:53:05;;;;;;;5.75;2.30;;;3.80;99.90;;;;;;5036561;28;20087;-67
2022/01/08 08:55:31;;;;;;;4.80;2.00;;;3.80;99.90;;;;;;5034779;28;20037;-71
2022/01/08 08:57:56;;;;;;;3.80;2.20;;;3.80;99.90;;;;;;5034841;28;20018;-71
2022/01/08 09:00:22;;;;;;;5.20;2.30;;;3.80;99.90;;;;;;5036483;28;20490;-68
2022/01/08 09:02:48;;;;;;;5.75;2.70;;;3.90;99.90;;;;;;5035945;28;20021;-71
2022/01/08 09:05:14;;;;;;;6.13;2.30;;;3.90;99.90;;;;;;5036374;28;20087;-69
2022/01/08 09:07:39;;;;;;;8.27;2.10;;;4.00;99.90;;;;;;5035899;28;20025;-69
2022/01/08 09:10:07;;;;;;;4.67;2.20;;;3.90;99.90;;;;;;5033552;28;20440;-66
2022/01/08 09:12:33;;;;;;;8.18;2.88;;;3.90;99.90;;;;;;5035976;28;20041;-68
2022/01/08 09:14:59;;;;;;;5.38;2.30;;;4.00;99.90;;;;;;5034371;28;20478;-67
2022/01/08 09:17:25;;;;;;;5.57;2.45;;;3.90;99.90;;;;;;5035785;28;20036;-69
2022/01/08 09:19:51;;;;;;;5.78;2.75;;;4.00;99.90;;;;;;5035084;28;20025;-67
2022/01/08 09:22:18;;;;;;;6.07;2.10;;;3.90;99.90;;;;;;5034411;28;20052;-65
2022/01/08 09:24:44;;;;;;;8.00;2.55;;;3.90;99.90;;;;;;5034229;28;20036;-70
2022/01/08 09:27:10;;;;;;;8.73;2.15;;;3.90;99.90;;;;;;5035200;28;20037;-66
2022/01/08 09:29:36;;;;;;;7.33;2.60;;;3.90;99.90;;;;;;5035665;28;20486;-67
2022/01/08 09:32:05;;;;;;;9.90;2.28;;;3.90;99.90;;;;;;5035441;28;20268;-68
2022/01/08 09:34:31;;;;;;;8.65;2.42;;;3.90;99.90;;;;;;5035369;28;20038;-66
2022/01/08 09:36:58;;;;;;;8.70;2.35;;;3.90;99.90;;;;;;5036306;28;20095;-68
2022/01/08 09:39:24;;;;;;;7.15;2.38;;;4.00;99.90;;;;;;5035428;28;20025;-69
2022/01/08 09:41:50;;;;;;;5.82;2.50;;;4.00;99.90;;;;;;5034040;28;20451;-67
2022/01/08 09:44:16;;;;;;;8.37;2.30;;;4.00;99.90;;;;;;5033817;28;20036;-70
2022/01/08 09:46:43;;;;;;;8.37;2.20;;;4.00;99.90;;;;;;5035602;28;20329;-66
2022/01/08 09:49:09;;;;;;;7.40;2.33;;;4.00;99.90;;;;;;5034868;28;20033;-65
2022/01/08 09:51:36;;;;;;;5.30;2.10;;;4.00;99.90;;;;;;5035168;28;20029;-67
2022/01/08 09:54:02;;;;;;;5.07;2.03;;;4.00;99.90;;;;;;5033699;28;20113;-67
2022/01/08 09:56:31;;;;;;;6.18;1.92;;;4.00;99.90;;;;;;5035195;28;20029;-67
2022/01/08 09:58:57;;;;;;;5.40;2.13;;;4.00;99.90;;;;;;5034550;28;20051;-66
2022/01/08 10:01:33;;;;;;;6.28;2.00;;;4.00;99.90;;;;;;5037183;28;20013;-69
2022/01/08 10:04:01;;;;;;;11.18;2.72;;;4.10;99.90;;;;;;5035715;28;20140;-68
2022/01/08 10:06:28;;;;;;;7.22;1.88;;;4.30;99.90;;;;;;5034545;28;20079;-69
2022/01/08 10:08:55;;;;;;;9.68;2.58;;;4.30;99.90;;;;;;5034877;28;20051;-65
2022/01/08 10:11:22;;;;;;;3.95;1.90;;;4.40;99.90;;;;;;5034442;28;20087;-68
2022/01/08 10:13:52;;;;;;;6.90;1.70;;;4.50;99.90;;;;;;5033212;28;20034;-68
2022/01/08 10:19:24;;;;;;;5.32;1.88;;;4.60;99.90;;;;;;5036795;28;20032;-68
2022/01/08 10:21:54;;;;;;;6.10;2.03;;;4.60;99.90;;;;;;5034096;28;20110;-68
2022/01/08 10:24:29;;;;;;;6.93;2.20;;;4.60;99.90;;;;;;5034433;28;20017;-67
2022/01/08 10:27:06;;;;;;;4.47;1.80;;;4.60;99.90;;;;;;5034587;28;20039;-65
2022/01/08 10:29:33;;;;;;;4.97;1.75;;;4.80;99.90;;;;;;5032612;28;20035;-70
2022/01/08 10:31:59;;;;;;;10.25;2.20;;;4.90;99.90;;;;;;5033779;28;20037;-66
2022/01/08 10:34:30;;;;;;;3.60;1.52;;;4.90;99.90;;;;;;5034443;28;20021;-64
2022/01/08 10:36:56;;;;;;;6.10;1.45;;;5.10;99.90;;;;;;5033843;28;20084;-65
2022/01/08 10:39:24;;;;;;;8.60;1.80;;;4.90;99.90;;;;;;5033836;28;20025;-64
2022/01/08 10:41:52;;;;;;;5.45;1.55;;;4.90;99.90;;;;;;5033407;28;20061;-62
2022/01/08 10:44:19;;;;;;;5.88;1.45;;;4.80;99.90;;;;;;5033984;28;20444;-62
2022/01/08 10:47:07;;;;;;;3.88;1.92;;;5.00;99.90;;;;;;5033749;28;20029;-62
2022/01/08 10:49:37;;;;;;;6.20;1.85;;;4.90;99.90;;;;;;5034079;28;20455;-62
2022/01/08 10:52:07;;;;;;;8.27;2.35;;;5.10;99.90;;;;;;5033579;28;20029;-62
2022/01/08 10:54:38;;;;;;;4.70;1.70;;;5.20;99.90;;;;;;5033742;28;20025;-62
2022/01/08 10:57:07;;;;;;;2.83;1.73;;;5.30;99.90;;;;;;5033647;28;20100;-62
2022/01/08 10:59:34;;;;;;;6.80;2.28;;;5.40;99.90;;;;;;5033415;28;20048;-65
2022/01/08 11:02:00;;;;;;;5.07;2.22;;;5.40;99.90;;;;;;5033584;28;20021;-65
2022/01/08 11:04:32;;;;;;;;;;;5.40;99.90;;;;;;5034111;28;20099;-65
2022/01/08 11:07:05;;;;;;;4.60;1.50;;;5.40;99.90;;;;;;5033173;28;19944;-66
2022/01/08 11:09:31;;;;;;;3.95;1.52;;;5.30;99.90;;;;;;5034552;28;20030;-65
2022/01/08 11:11:59;;;;;;;5.85;2.03;;;5.10;99.90;;;;;;5034194;28;20025;-65
2022/01/08 11:17:16;;;;;;;8.02;1.80;;;5.00;99.90;;;;;;5032459;28;20501;-65
2022/01/08 11:19:46;;;;;;;3.70;1.55;;;4.80;99.90;;;;;;5033914;28;20026;-65
2022/01/08 11:22:15;;;;;;;5.63;1.50;;;4.70;99.90;;;;;;5031695;28;20021;-65
2022/01/08 11:24:49;;;;;;;4.82;1.50;;;4.70;99.90;;;;;;5032743;28;20036;-64
2022/01/08 11:27:22;;;;;;;5.07;1.55;;;4.70;99.90;;;;;;5033297;28;20025;-64
2022/01/08 11:29:58;;;;;;;2.70;1.20;;;4.70;99.90;;;;;;5033222;28;20429;-64
2022/01/08 11:32:26;;;;;;;4.53;1.27;;;4.70;99.90;;;;;;5031119;28;20037;-64
2022/01/08 11:34:54;;;;;;;5.10;1.50;;;4.60;99.90;;;;;;5032216;28;20025;-64
2022/01/08 11:37:22;;;;;;;3.80;1.20;;;4.70;99.90;;;;;;5033987;28;20032;-64
2022/01/08 11:39:51;;;;;;;6.80;1.23;;;4.70;99.90;;;;;;5033978;28;20390;-64
2022/01/08 11:42:19;;;;;;;3.38;1.50;;;4.80;99.90;;;;;;5034523;28;20025;-64
2022/01/08 11:44:45;;;;;;;5.82;1.77;;;4.80;99.90;;;;;;5031958;28;20080;-64
2022/01/08 11:47:11;;;;;;;10.18;5.05;;;4.90;99.90;;;;;;5033626;28;20029;-64
2022/01/08 11:49:40;;;;;;;8.13;2.50;;;4.80;99.90;;;;;;5034930;28;20501;-64
2022/01/08 11:52:21;;;;;;;4.70;1.70;;;5.00;99.90;;;;;;5032148;28;20026;-65
2022/01/08 11:54:49;;;;;;;3.40;1.90;;;5.10;99.90;;;;;;5032924;28;20100;-64
2022/01/08 11:57:27;;;;;;;8.10;4.32;;;5.10;99.90;;;;;;5033336;28;20025;-65
2022/01/08 11:59:57;;;;;;;5.65;3.05;;;5.10;99.90;;;;;;5032906;28;20088;-64
2022/01/08 12:02:43;;;;;;;5.18;2.50;;;5.20;99.90;;;;;;5032787;28;20053;-63
2022/01/08 12:05:13;;;;;;;8.32;2.67;;;5.20;99.90;;;;;;5032822;28;20022;-63
2022/01/08 12:07:46;;;;;;;4.57;2.58;;;5.30;99.90;;;;;;5032955;28;20025;-63
2022/01/08 12:10:30;;;;;;;7.00;2.53;;;5.10;99.90;;;;;;5032948;28;20544;-64
2022/01/08 12:13:01;;;;;;;4.93;2.28;;;5.10;99.90;;;;;;5033005;28;20026;-64
2022/01/08 12:15:42;;;;;;;7.47;2.20;;;5.00;99.90;;;;;;5033261;28;20033;-63
2022/01/08 12:18:14;;;;;;;8.77;4.60;;;5.10;99.90;;;;;;5031756;28;20017;-63
2022/01/08 12:20:51;;;;;;;7.65;2.92;;;5.10;99.90;;;;;;5031638;28;20022;-64
2022/01/08 12:23:36;;;;;;;4.65;2.63;;;5.10;99.90;;;;;;5032922;28;20540;-62
2022/01/08 12:26:22;;;;;;;6.43;2.72;;;5.20;99.90;;;;;;5032843;28;20034;-64
2022/01/08 12:28:53;;;;;;;3.80;1.92;;;5.20;99.90;;;;;;5020916;28;20394;-64
2022/01/08 12:31:23;;;;;;;4.13;1.73;;;5.20;99.90;;;;;;5032420;28;20037;-64
2022/01/08 12:34:23;;;;;;;9.30;4.25;;;5.30;99.90;;;;;;5032595;28;20040;-63
2022/01/08 12:36:52;;;;;;;5.97;2.80;;;5.40;99.90;;;;;;5032441;28;20338;-65
2022/01/08 12:39:28;;;;;;;4.85;1.85;;;5.50;99.90;;;;;;5033761;28;20512;-64
2022/01/08 12:42:25;;;;;;;7.18;4.03;;;5.50;99.90;;;;;;5033804;28;20093;-64
2022/01/08 12:45:12;;;;;;;6.68;1.55;;;5.60;99.90;;;;;;5034145;28;20113;-64
2022/01/08 12:48:01;;;;;;;7.10;3.60;;;5.70;99.90;;;;;;5036010;28;20030;-64
2022/01/08 12:50:34;;;;;;;8.63;4.78;;;5.60;99.90;;;;;;5036331;28;20023;-64
2022/01/08 12:53:05;;;;;;;6.03;2.13;;;5.70;99.90;;;;;;5035882;28;20025;-64
2022/01/08 12:55:36;;;;;;;3.67;1.60;;;5.60;99.90;;;;;;5034225;28;20025;-65
2022/01/08 12:58:13;;;;;;;4.88;2.47;;;5.70;99.90;;;;;;5035986;28;20505;-64
2022/01/08 13:00:57;;;;;;;;;;;5.70;99.90;;;;;;5034983;28;20079;-64
2022/01/08 13:03:26;;;;;;;3.95;1.52;;;5.50;99.90;;;;;;5034303;28;19967;-64
2022/01/08 13:05:52;;;;;;;4.88;2.70;;;5.50;99.90;;;;;;5035854;28;20358;-64
2022/01/08 13:08:27;;;;;;;5.30;1.85;;;5.60;99.90;;;;;;5034349;28;20057;-64
2022/01/08 13:10:57;;;;;;;3.33;1.85;;;5.60;99.90;;;;;;5034163;28;20037;-65
2022/01/08 13:13:24;;;;;;;8.18;3.15;;;5.50;99.90;;;;;;5036502;28;20100;-64
2022/01/08 13:15:53;;;;;;;9.23;3.80;;;5.50;99.90;;;;;;5035637;28;20471;-64
2022/01/08 13:18:21;;;;;;;6.70;2.65;;;5.50;99.90;;;;;;5035415;28;20354;-64
2022/01/08 13:20:59;;;;;;;5.22;1.35;;;5.40;99.90;;;;;;5035539;28;20360;-64
2022/01/08 13:23:25;;;;;;;5.93;1.80;;;5.40;99.90;;;;;;5035316;28;20032;-64
2022/01/08 13:25:53;;;;;;;6.72;2.00;;;5.50;99.90;;;;;;5035321;28;20033;-64
2022/01/08 13:28:23;;;;;;;7.95;4.15;;;5.60;99.90;;;;;;5033980;28;20120;-64
2022/01/08 13:30:49;;;;;;;4.32;1.90;;;5.50;99.90;;;;;;5033696;28;20026;-64
2022/01/08 13:33:26;;;;;;;6.18;2.13;;;5.50;99.90;;;;;;5033744;28;20119;-64